Latest Weather Observations for Kununurra Airport

IDD60801

Issued at 11:31 pm CST Thursday 28 May 2015 (issued every 30 minutes, with the page automatically refreshed every 10 minutes)

About weather observations | Map of weather stations | Latest weather observations for NT | Other Formats
Station Details ID: 002056 Name: KUNUNURRA AERO Lat: -15.78 Lon: 128.71 Height: 44.0 m
Data from the previous 72 hours. | See also: Recent months at Kununurra Airport
Date/Time
CST
Temp
°C
App
Temp
°C
Dew
Point
Rel
Hum
%
Delta-T
°C
Wind Press
QNH
hPa
Press
MSL
hPa
Rain
since 9 am
mm
Dir
 
Spd
km/h
Gust
km/h
Spd
kts
Gust
kts
28/11:30pm 22.0 24.3 16.8 72 3.2 CALM 0 0 0 0 1014.6 1014.4 0.0
28/11:00pm 23.2 24.4 16.9 67 3.9 ENE 6 9 3 5 1014.5 1014.3 0.0
28/10:30pm 23.8 24.8 16.3 63 4.6 NE 6 7 3 4 1014.5 1014.3 0.0
28/10:00pm 24.1 24.7 15.9 60 5.0 NNW 7 9 4 5 1014.4 1014.2 0.0
28/09:30pm 23.7 25.8 17.2 67 4.0 SSW 2 6 1 3 1014.1 1013.9 0.0
28/09:00pm 25.2 26.6 17.7 63 4.7 WSW 7 9 4 5 1013.7 1013.5 0.0
28/08:30pm 24.9 27.3 17.0 61 4.9 CALM 0 0 0 0 1013.3 1013.1 0.0
28/08:00pm 26.1 27.8 17.1 57 5.6 ENE 4 6 2 3 1013.1 1012.9 0.0
28/07:30pm 27.0 28.1 16.5 52 6.5 ENE 6 7 3 4 1012.7 1012.5 0.0
28/07:00pm 29.1 31.1 17.0 48 7.6 ENE 2 6 1 3 1012.4 1012.2 0.0
28/06:30pm 31.7 32.6 16.0 38 9.8 ENE 6 7 3 4 1012.0 1011.8 0.0
28/06:00pm 33.8 33.3 13.8 30 12.2 E 9 11 5 6 1011.7 1011.5 0.0
28/05:30pm 34.7 34.3 12.4 26 13.4 SE 6 9 3 5 1011.5 1011.3 0.0
28/05:00pm 35.1 34.4 11.5 24 14.0 NE 6 9 3 5 1011.2 1011.0 0.0
28/04:30pm 35.3 33.8 10.5 22 14.5 SSE 9 17 5 9 1011.1 1010.9 0.0
28/04:00pm 35.2 33.4 10.9 23 14.3 S 11 17 6 9 1011.1 1010.9 0.0
28/03:30pm 35.4 33.7 11.2 23 14.3 SE 11 24 6 13 1011.2 1011.0 0.0
28/03:00pm 35.2 34.0 11.7 24 14.0 E 9 15 5 8 1011.4 1011.2 0.0
28/02:30pm 34.9 32.6 11.7 24 13.8 ENE 15 20 8 11 1011.9 1011.7 0.0
28/02:00pm 35.2 32.9 11.9 24 13.9 E 15 26 8 14 1012.3 1012.1 0.0
28/01:30pm 34.4 32.7 12.3 26 13.2 ENE 13 24 7 13 1012.9 1012.7 0.0
28/01:00pm 34.2 32.3 11.8 25 13.3 ESE 13 26 7 14 1013.4 1013.2 0.0
28/12:30pm 33.3 32.0 12.5 28 12.4 SSE 11 17 6 9 1013.9 1013.7 0.0
28/12:00pm 33.2 32.4 12.9 29 12.2 E 9 15 5 8 1014.2 1014.0 0.0
28/11:30am 32.6 30.1 12.4 29 12.0 E 17 26 9 14 1014.4 1014.2 0.0
28/11:00am 31.0 30.0 13.3 34 10.6 ESE 11 17 6 9 1014.9 1014.7 0.0
28/10:30am 29.8 29.5 13.4 36 9.8 SSW 7 11 4 6 1014.9 1014.7 0.0
28/10:00am 28.4 28.2 13.6 40 8.8 S 7 9 4 5 1015.1 1014.9 0.0
28/09:30am 26.3 26.2 13.8 46 7.4 SSW 7 9 4 5 1015.1 1014.9 0.0
28/09:00am 24.4 25.9 14.7 54 5.8 CALM 0 0 0 0 1014.9 1014.7 0.0
28/08:30am 22.4 22.7 14.6 61 4.6 S 6 7 3 4 1014.6 1014.4 0.0
28/08:00am 20.6 22.9 17.8 84 1.7 SSE 2 9 1 5 1014.3 1014.1 0.0
28/07:30am 18.1 19.3 15.9 87 1.3 ESE 4 9 2 5 1014.0 1013.8 0.0
28/07:00am 17.1 18.7 15.0 87 1.2 CALM 0 0 0 0 1013.7 1013.5 0.0
28/06:30am 16.7 18.3 14.8 88 1.1 CALM 0 0 0 0 1013.3 1013.1 0.0
28/06:00am 17.4 19.1 15.3 87 1.2 CALM 0 0 0 0 1013.0 1012.8 0.0
28/05:30am 17.6 18.2 15.4 87 1.3 S 6 7 3 4 1012.9 1012.7 0.0
28/05:00am 17.4 17.9 15.0 86 1.4 WSW 6 7 3 4 1012.8 1012.6 0.0
28/04:30am 17.4 19.0 14.8 85 1.5 CALM 0 9 0 5 1012.9 1012.7 0.0
28/04:00am 18.1 19.8 15.2 83 1.7 CALM 0 0 0 0 1012.8 1012.6 0.0
28/03:30am 18.8 20.2 15.4 80 2.0 ESE 2 6 1 3 1012.9 1012.7 0.0
28/03:00am 18.9 21.0 16.2 84 1.6 CALM 0 0 0 0 1013.0 1012.8 0.0
28/02:30am 18.8 20.6 15.4 80 2.0 CALM 0 0 0 0 1013.2 1013.0 0.0
28/02:00am 19.6 21.6 16.1 80 2.1 CALM 0 0 0 0 1013.4 1013.2 0.0
28/01:30am 19.5 21.2 15.3 76 2.5 CALM 0 0 0 0 1013.5 1013.3 0.0
28/01:00am 20.3 22.0 15.2 72 3.0 CALM 0 0 0 0 1013.7 1013.5 0.0
28/12:30am 20.9 22.3 15.3 70 3.3 WNW 2 6 1 3 1013.9 1013.7 0.0
28/12:00am 20.9 22.1 14.8 68 3.6 WNW 2 7 1 4 1014.1 1013.9 0.0
 
Date/Time
CST
Temp
°C
App
Temp
°C
Dew
Point
Rel
Hum
%
Delta-T
°C
Wind Press
QNH
hPa
Press
MSL
hPa
Rain
since 9 am
mm
Dir
 
Spd
km/h
Gust
km/h
Spd
kts
Gust
kts
27/11:30pm 21.5 22.9 14.5 64 4.1 CALM 0 0 0 0 1014.2 1014.0 0.0
27/11:00pm 22.2 22.0 14.6 62 4.5 NNE 9 11 5 6 1014.2 1014.0 0.0
27/10:30pm 22.7 23.4 15.5 64 4.3 SSW 6 11 3 6 1014.2 1014.0 0.0
27/10:00pm 22.1 22.8 15.6 66 3.9 ENE 6 17 3 9 1014.0 1013.8 0.0
27/09:30pm 23.3 25.4 16.2 64 4.3 CALM 0 0 0 0 1013.7 1013.5 0.0
27/09:00pm 23.6 25.7 17.3 67 3.9 ESE 2 6 1 3 1013.6 1013.4 0.0
27/08:30pm 23.7 25.9 16.5 64 4.4 CALM 0 0 0 0 1013.3 1013.1 0.0
27/08:00pm 24.9 26.9 15.9 57 5.5 CALM 0 0 0 0 1013.0 1012.8 0.0
27/07:30pm 26.2 28.5 16.7 56 5.9 CALM 0 0 0 0 1012.4 1012.2 0.0
27/07:00pm 27.2 29.2 16.0 50 6.9 CALM 0 0 0 0 1011.9 1011.7 0.0
27/06:30pm 31.1 31.6 15.6 39 9.6 E 7 9 4 5 1011.5 1011.3 0.0
27/06:00pm 32.9 31.9 12.2 28 12.3 ESE 9 13 5 7 1011.3 1011.1 0.0
27/05:30pm 34.2 32.6 10.2 23 13.9 SE 9 13 5 7 1011.2 1011.0 0.0
27/05:00pm 34.8 33.0 10.7 23 14.1 SE 11 17 6 9 1011.1 1010.9 0.0
27/04:30pm 35.0 33.0 10.2 22 14.4 SE 11 15 6 8 1011.2 1011.0 0.0
27/04:00pm 35.0 32.5 9.7 21 14.6 SE 13 19 7 10 1011.2 1011.0 0.0
27/03:30pm 34.6 32.5 9.8 22 14.3 S 11 17 6 9 1011.4 1011.2 0.0
27/03:00pm 34.8 32.7 9.9 22 14.4 E 11 19 6 10 1011.6 1011.4 0.0
27/02:30pm 35.1 31.3 9.0 20 14.9 SE 19 26 10 14 1012.0 1011.8 0.0
27/02:00pm 34.6 31.5 8.9 20 14.6 SE 15 19 8 10 1012.4 1012.2 0.0
27/01:30pm 34.2 30.3 8.5 20 14.5 E 19 30 10 16 1013.1 1012.9 0.0
27/01:00pm 34.3 30.8 8.7 20 14.5 E 17 24 9 13 1013.8 1013.6 0.0
27/12:30pm 33.7 29.8 8.7 21 14.1 ESE 19 26 10 14 1014.3 1014.1 0.0
27/12:00pm 33.2 28.7 8.4 21 13.9 ESE 22 28 12 15 1014.8 1014.6 0.0
27/11:30am 32.3 28.1 8.2 22 13.4 ESE 20 26 11 14 1015.2 1015.0 0.0
27/11:00am 32.0 27.4 8.2 23 13.2 ESE 22 28 12 15 1015.4 1015.2 0.0
27/10:30am 31.8 27.2 8.1 23 13.1 ESE 22 32 12 17 1015.8 1015.6 0.0
27/10:00am 30.1 27.4 9.1 27 11.7 SE 13 20 7 11 1016.1 1015.9 0.0
27/09:30am 28.0 27.5 12.8 39 8.9 S 7 9 4 5 1016.2 1016.0 0.0
27/09:00am 26.3 25.6 12.0 41 8.2 S 7 9 4 5 1015.9 1015.7 0.0
27/08:30am 24.8 24.6 12.9 47 6.9 S 6 9 3 5 1015.6 1015.4 0.0
27/08:00am 21.4 23.1 16.1 72 3.2 SSE 2 6 1 3 1015.1 1014.9 0.0
27/07:30am 19.7 20.1 14.7 73 2.9 SSE 6 7 3 4 1014.8 1014.6 0.0
27/07:00am 20.2 20.6 16.4 79 2.3 S 9 9 5 5 1014.5 1014.3 0.0
27/06:30am 19.7 20.1 14.7 73 2.9 SE 6 7 3 4 1014.3 1014.1 0.0
27/06:00am 20.7 21.9 16.0 74 2.8 SSE 4 11 2 6 1014.1 1013.9 0.0
27/05:30am 18.7 20.4 15.1 79 2.1 CALM 0 0 0 0 1014.0 1013.8 0.0
27/05:00am 19.0 19.5 14.9 77 2.4 SE 6 7 3 4 1013.9 1013.7 0.0
27/04:30am 19.6 20.4 15.9 79 2.2 S 6 9 3 5 1014.1 1013.9 0.0
27/04:00am 18.7 19.3 15.3 80 2.0 S 6 7 3 4 1014.1 1013.9 0.0
27/03:30am 20.5 21.2 15.6 73 2.9 ESE 6 7 3 4 1014.2 1014.0 0.0
27/03:00am 20.8 21.9 16.7 77 2.5 SSE 6 7 3 4 1014.4 1014.2 0.0
27/02:30am 19.8 21.0 15.8 78 2.4 SE 4 9 2 5 1014.6 1014.4 0.0
27/02:00am 20.0 21.8 15.4 75 2.7 CALM 0 0 0 0 1015.0 1014.8 0.0
27/01:30am 19.9 21.6 15.1 74 2.8 CALM 0 0 0 0 1015.4 1015.2 0.0
27/01:00am 20.6 21.5 15.2 71 3.2 SSW 4 6 2 3 1015.8 1015.6 0.0
27/12:30am 20.6 22.1 14.6 68 3.5 CALM 0 0 0 0 1016.0 1015.8 0.0
27/12:00am 20.9 20.9 14.2 65 3.9 NW 7 7 4 4 1016.2 1016.0 0.0
 
Date/Time
CST
Temp
°C
App
Temp
°C
Dew
Point
Rel
Hum
%
Delta-T
°C
Wind Press
QNH
hPa
Press
MSL
hPa
Rain
since 9 am
mm
Dir
 
Spd
km/h
Gust
km/h
Spd
kts
Gust
kts
26/11:30pm 21.4 22.8 14.4 64 4.1 CALM 0 0 0 0 1016.1 1015.9 0.0
26/11:00pm 21.7 23.3 14.9 65 4.0 CALM 0 0 0 0 1016.1 1015.9 0.0
26/10:30pm 22.6 23.9 14.2 59 4.9 CALM 0 0 0 0 1016.0 1015.8 0.0
26/10:00pm 23.1 24.7 15.0 60 4.8 CALM 0 0 0 0 1015.9 1015.7 0.0
26/09:30pm 24.8 25.5 15.5 56 5.6 SE 6 7 3 4 1015.7 1015.5 0.0
26/09:00pm 24.9 25.5 15.3 55 5.8 SE 6 7 3 4 1015.5 1015.3 0.0
26/08:30pm 25.5 27.7 16.4 57 5.6 CALM 0 0 0 0 1015.2 1015.0 0.0
26/08:00pm 26.0 28.0 15.9 53 6.2 CALM 0 4 0 2 1015.0 1014.8 0.0
26/07:30pm 29.1 28.3 12.8 36 9.6 S 9 11 5 6 1014.6 1014.4 0.0
26/07:00pm 29.1 28.6 15.0 42 8.6 SSE 11 15 6 8 1014.2 1014.0 0.0
26/06:30pm 30.8 31.0 14.6 37 9.9 SSW 7 9 4 5 1013.8 1013.6 0.0
26/06:00pm 33.0 32.5 12.8 29 12.1 SSE 7 9 4 5 1013.5 1013.3 0.0
26/05:30pm 34.0 33.0 10.9 24 13.5 SSW 7 9 4 5 1013.2 1013.0 0.0
26/05:00pm 34.5 33.5 10.2 22 14.1 S 6 11 3 6 1013.2 1013.0 0.0
26/04:30pm 34.3 32.4 9.2 21 14.3 S 9 13 5 7 1013.1 1012.9 0.0
26/04:00pm 34.8 33.4 9.6 21 14.5 SSE 7 17 4 9 1013.2 1013.0 0.0
26/03:30pm 34.8 32.9 9.0 20 14.7 SE 9 15 5 8 1013.4 1013.2 0.0
26/03:00pm 34.2 30.6 8.2 20 14.6 ESE 17 24 9 13 1013.7 1013.5 0.0
26/02:30pm 34.0 31.7 9.0 21 14.2 SE 11 17 6 9 1014.0 1013.8 0.0
26/02:00pm 34.3 30.6 8.1 20 14.7 ESE 17 26 9 14 1014.5 1014.3 0.0
26/01:30pm 34.1 30.9 8.3 20 14.5 SE 15 20 8 11 1015.1 1014.9 0.0
26/01:00pm 33.5 29.5 6.5 18 14.7 E 17 22 9 12 1015.8 1015.6 0.0
26/12:30pm 33.0 29.3 6.1 18 14.5 E 15 24 8 13 1016.5 1016.3 0.0
26/12:00pm 32.2 28.1 4.1 17 14.6 ESE 15 22 8 12 1017.1 1016.9 0.0
26/11:30am 31.2 27.5 4.7 18 13.8 SSE 13 19 7 10 1017.6 1017.4 0.0
26/11:00am 30.3 26.6 4.3 19 13.4 SE 13 19 7 10 1017.9 1017.7 0.0
26/10:30am 29.3 25.6 4.3 20 12.8 SE 13 15 7 8 1018.2 1018.0 0.0
26/10:00am 27.6 24.6 6.2 25 11.2 SE 11 15 6 8 1018.3 1018.1 0.0
26/09:30am 26.4 24.1 7.6 30 10.0 SE 9 13 5 7 1018.3 1018.1 0.0
26/09:00am 24.5 22.2 7.6 34 8.9 SE 9 11 5 6 1018.1 1017.9 0.0
26/08:30am 22.0 21.1 10.7 48 6.2 SSE 6 7 3 4 1018.1 1017.9 0.0
26/08:00am 17.9 18.3 12.5 70 3.0 S 2 6 1 3 1018.0 1017.8 0.0
26/07:30am 17.1 16.6 12.6 75 2.5 S 7 7 4 4 1017.8 1017.6 0.0
26/07:00am 15.4 15.6 11.7 78 2.0 S 2 7 1 4 1017.3 1017.1 0.0
26/06:30am 15.5 15.8 11.0 74 2.4 CALM 0 0 0 0 1016.9 1016.7 0.0
26/06:00am 16.0 16.5 11.6 75 2.4 CALM 0 6 0 3 1016.5 1016.3 0.0
26/05:30am 16.2 16.8 12.0 76 2.3 CALM 0 0 0 0 1016.3 1016.1 0.0
26/05:00am 18.2 17.6 11.8 66 3.5 SSE 6 7 3 4 1016.3 1016.1 0.0
26/04:30am 16.6 16.0 12.4 76 2.3 SSW 7 9 4 5 1016.3 1016.1 0.0
26/04:00am 17.5 17.1 12.4 72 2.8 SE 6 7 3 4 1016.4 1016.2 0.0
26/03:30am 16.4 17.3 12.8 79 2.0 CALM 0 0 0 0 1016.4 1016.2 0.0
26/03:00am 16.9 17.5 13.1 78 2.1 SSW 2 6 1 3 1016.4 1016.2 0.0
26/02:30am 17.4 17.4 13.5 78 2.2 SSW 6 7 3 4 1016.7 1016.5 0.0
26/02:00am 16.2 15.5 13.3 83 1.6 SW 9 11 5 6 1016.9 1016.7 0.0
26/01:30am 16.9 17.9 14.3 85 1.5 SE 2 6 1 3 1017.2 1017.0 0.0

Other Formats:

Comma delimited format used in spreadsheet applications
http://www.bom.gov.au/fwo/IDD60801/IDD60801.94216.axf

JavaScript Object Notation format (JSON) in row-major order
http://www.bom.gov.au/fwo/IDD60801/IDD60801.94216.json